sensor_id;sensor_type;location;lat;lon;timestamp;pressure;altitude;pressure_sealevel;temperature;humidity
71465;BME280;59274;49.874;9.154;2023-12-22T00:02:15;98902.69;;;4.67;100.00
71465;BME280;59274;49.874;9.154;2023-12-22T00:04:41;98891.59;;;4.72;100.00
71465;BME280;59274;49.874;9.154;2023-12-22T00:07:07;98885.91;;;4.77;100.00
71465;BME280;59274;49.874;9.154;2023-12-22T00:09:32;98902.88;;;4.81;100.00
71465;BME280;59274;49.874;9.154;2023-12-22T00:11:57;98895.59;;;4.85;100.00
71465;BME280;59274;49.874;9.154;2023-12-22T00:14:23;98921.84;;;4.95;100.00
71465;BME280;59274;49.874;9.154;2023-12-22T00:16:48;98910.75;;;5.00;100.00
71465;BME280;59274;49.874;9.154;2023-12-22T00:19:14;98908.84;;;5.01;100.00
71465;BME280;59274;49.874;9.154;2023-12-22T00:21:39;98916.16;;;5.00;100.00
71465;BME280;59274;49.874;9.154;2023-12-22T00:24:05;98931.56;;;5.03;100.00
71465;BME280;59274;49.874;9.154;2023-12-22T00:26:30;98920.06;;;5.06;100.00
71465;BME280;59274;49.874;9.154;2023-12-22T00:28:56;98920.09;;;5.10;100.00
71465;BME280;59274;49.874;9.154;2023-12-22T00:31:21;98927.78;;;5.11;100.00
71465;BME280;59274;49.874;9.154;2023-12-22T00:33:47;98905.19;;;5.16;100.00
71465;BME280;59274;49.874;9.154;2023-12-22T00:36:12;98896.28;;;5.12;100.00
71465;BME280;59274;49.874;9.154;2023-12-22T00:38:38;98932.03;;;5.12;100.00
71465;BME280;59274;49.874;9.154;2023-12-22T00:41:03;98939.03;;;5.21;100.00
71465;BME280;59274;49.874;9.154;2023-12-22T00:43:29;98933.66;;;5.21;100.00
71465;BME280;59274;49.874;9.154;2023-12-22T00:45:54;98945.91;;;5.15;100.00
71465;BME280;59274;49.874;9.154;2023-12-22T00:48:21;98936.56;;;5.05;100.00
71465;BME280;59274;49.874;9.154;2023-12-22T00:50:46;98944.53;;;4.98;100.00
71465;BME280;59274;49.874;9.154;2023-12-22T00:53:12;98943.06;;;5.00;100.00
71465;BME280;59274;49.874;9.154;2023-12-22T00:55:38;98941.94;;;5.05;100.00
71465;BME280;59274;49.874;9.154;2023-12-22T00:58:04;98957.31;;;5.04;100.00
71465;BME280;59274;49.874;9.154;2023-12-22T01:00:29;98936.28;;;5.13;100.00
71465;BME280;59274;49.874;9.154;2023-12-22T01:02:55;98927.75;;;5.08;100.00
71465;BME280;59274;49.874;9.154;2023-12-22T01:05:20;98911.88;;;4.96;100.00
71465;BME280;59274;49.874;9.154;2023-12-22T01:07:46;98916.03;;;4.90;100.00
71465;BME280;59274;49.874;9.154;2023-12-22T01:10:11;98939.00;;;4.84;100.00
71465;BME280;59274;49.874;9.154;2023-12-22T01:12:37;98938.97;;;4.80;100.00
71465;BME280;59274;49.874;9.154;2023-12-22T01:15:02;98932.66;;;4.69;100.00
71465;BME280;59274;49.874;9.154;2023-12-22T01:17:28;98920.31;;;4.64;100.00
71465;BME280;59274;49.874;9.154;2023-12-22T01:19:53;98930.25;;;4.60;100.00
71465;BME280;59274;49.874;9.154;2023-12-22T01:22:19;98937.66;;;4.67;100.00
71465;BME280;59274;49.874;9.154;2023-12-22T01:24:44;98952.25;;;4.69;100.00
71465;BME280;59274;49.874;9.154;2023-12-22T01:27:11;98954.59;;;4.71;100.00
71465;BME280;59274;49.874;9.154;2023-12-22T01:29:36;98948.84;;;4.72;100.00
71465;BME280;59274;49.874;9.154;2023-12-22T01:32:02;98950.41;;;4.73;100.00
71465;BME280;59274;49.874;9.154;2023-12-22T01:34:28;98933.91;;;4.75;100.00
71465;BME280;59274;49.874;9.154;2023-12-22T01:36:53;98931.63;;;4.77;100.00
71465;BME280;59274;49.874;9.154;2023-12-22T01:39:19;98933.50;;;4.73;100.00
71465;BME280;59274;49.874;9.154;2023-12-22T01:41:45;98937.66;;;4.67;100.00
71465;BME280;59274;49.874;9.154;2023-12-22T01:44:10;98938.50;;;4.75;100.00
71465;BME280;59274;49.874;9.154;2023-12-22T01:46:36;98921.19;;;4.72;100.00
71465;BME280;59274;49.874;9.154;2023-12-22T01:49:05;98919.00;;;4.81;100.00
71465;BME280;59274;49.874;9.154;2023-12-22T01:51:34;98929.75;;;4.81;100.00
71465;BME280;59274;49.874;9.154;2023-12-22T01:54:02;98927.47;;;4.83;100.00
71465;BME280;59274;49.874;9.154;2023-12-22T01:56:29;98939.00;;;4.84;100.00
71465;BME280;59274;49.874;9.154;2023-12-22T01:58:57;98955.91;;;4.84;100.00
71465;BME280;59274;49.874;9.154;2023-12-22T02:01:24;98982.81;;;4.84;100.00
71465;BME280;59274;49.874;9.154;2023-12-22T02:03:51;99012.88;;;4.63;100.00
71465;BME280;59274;49.874;9.154;2023-12-22T02:06:18;99012.75;;;4.07;100.00
71465;BME280;59274;49.874;9.154;2023-12-22T02:08:46;99009.88;;;3.74;100.00
71465;BME280;59274;49.874;9.154;2023-12-22T02:11:15;99033.16;;;3.47;100.00
71465;BME280;59274;49.874;9.154;2023-12-22T02:13:42;99032.66;;;3.41;100.00
71465;BME280;59274;49.874;9.154;2023-12-22T02:16:22;99028.44;;;3.40;100.00
71465;BME280;59274;49.874;9.154;2023-12-22T02:18:55;99013.19;;;3.44;100.00
71465;BME280;59274;49.874;9.154;2023-12-22T02:21:21;99005.59;;;3.50;100.00
71465;BME280;59274;49.874;9.154;2023-12-22T02:23:49;99016.44;;;3.53;100.00
71465;BME280;59274;49.874;9.154;2023-12-22T02:26:34;99022.19;;;3.55;100.00
71465;BME280;59274;49.874;9.154;2023-12-22T02:29:02;99022.28;;;3.59;100.00
71465;BME280;59274;49.874;9.154;2023-12-22T02:31:35;99023.88;;;3.64;100.00
71465;BME280;59274;49.874;9.154;2023-12-22T02:34:07;99024.31;;;3.66;100.00
71465;BME280;59274;49.874;9.154;2023-12-22T02:36:38;99025.78;;;3.63;100.00
71465;BME280;59274;49.874;9.154;2023-12-22T02:39:06;99023.47;;;3.62;100.00
71465;BME280;59274;49.874;9.154;2023-12-22T02:41:32;99006.28;;;3.66;100.00
71465;BME280;59274;49.874;9.154;2023-12-22T02:43:58;99013.66;;;3.69;100.00
71465;BME280;59274;49.874;9.154;2023-12-22T02:46:24;99022.75;;;3.65;100.00
71465;BME280;59274;49.874;9.154;2023-12-22T02:48:50;99010.47;;;3.64;100.00
71465;BME280;59274;49.874;9.154;2023-12-22T02:51:15;99000.16;;;3.66;100.00
71465;BME280;59274;49.874;9.154;2023-12-22T02:53:41;98996.00;;;3.68;100.00
71465;BME280;59274;49.874;9.154;2023-12-22T02:56:06;99007.97;;;3.74;100.00
71465;BME280;59274;49.874;9.154;2023-12-22T02:58:32;99008.34;;;3.73;100.00
71465;BME280;59274;49.874;9.154;2023-12-22T03:00:57;99004.88;;;3.72;100.00
71465;BME280;59274;49.874;9.154;2023-12-22T03:03:23;99028.81;;;3.81;100.00
71465;BME280;59274;49.874;9.154;2023-12-22T03:05:48;99023.78;;;3.79;100.00
71465;BME280;59274;49.874;9.154;2023-12-22T03:08:13;99027.56;;;3.75;100.00
71465;BME280;59274;49.874;9.154;2023-12-22T03:10:42;99019.63;;;3.82;100.00
71465;BME280;59274;49.874;9.154;2023-12-22T03:13:07;99011.16;;;3.80;100.00
71465;BME280;59274;49.874;9.154;2023-12-22T03:15:33;99008.09;;;3.81;100.00
71465;BME280;59274;49.874;9.154;2023-12-22T03:17:58;99017.78;;;3.86;100.00
71465;BME280;59274;49.874;9.154;2023-12-22T03:20:24;99007.03;;;3.86;100.00
71465;BME280;59274;49.874;9.154;2023-12-22T03:22:49;98997.03;;;3.83;100.00
71465;BME280;59274;49.874;9.154;2023-12-22T03:25:15;98999.28;;;3.81;100.00
71465;BME280;59274;49.874;9.154;2023-12-22T03:27:40;98979.94;;;3.72;100.00
71465;BME280;59274;49.874;9.154;2023-12-22T03:30:06;98983.03;;;3.74;100.00
71465;BME280;59274;49.874;9.154;2023-12-22T03:32:32;98962.22;;;3.67;100.00
71465;BME280;59274;49.874;9.154;2023-12-22T03:34:57;98976.41;;;3.68;100.00
71465;BME280;59274;49.874;9.154;2023-12-22T03:37:22;98971.81;;;3.68;100.00
71465;BME280;59274;49.874;9.154;2023-12-22T03:39:48;98969.91;;;3.69;100.00
71465;BME280;59274;49.874;9.154;2023-12-22T03:42:16;98960.66;;;3.66;100.00
71465;BME280;59274;49.874;9.154;2023-12-22T03:44:42;98971.09;;;3.71;100.00
71465;BME280;59274;49.874;9.154;2023-12-22T03:47:07;98973.84;;;3.75;100.00
71465;BME280;59274;49.874;9.154;2023-12-22T03:49:32;98981.19;;;3.78;100.00
71465;BME280;59274;49.874;9.154;2023-12-22T03:51:58;98987.75;;;3.80;100.00
71465;BME280;59274;49.874;9.154;2023-12-22T03:54:23;98995.03;;;3.80;100.00
71465;BME280;59274;49.874;9.154;2023-12-22T03:56:49;99009.59;;;3.79;100.00
71465;BME280;59274;49.874;9.154;2023-12-22T03:59:14;98981.91;;;3.75;100.00
71465;BME280;59274;49.874;9.154;2023-12-22T04:01:43;98973.84;;;3.75;100.00
71465;BME280;59274;49.874;9.154;2023-12-22T04:04:09;98982.03;;;3.82;100.00
71465;BME280;59274;49.874;9.154;2023-12-22T04:06:38;98977.69;;;3.74;100.00
71465;BME280;59274;49.874;9.154;2023-12-22T04:09:04;98989.25;;;3.78;100.00
71465;BME280;59274;49.874;9.154;2023-12-22T04:11:29;98967.75;;;3.78;100.00
71465;BME280;59274;49.874;9.154;2023-12-22T04:13:54;98967.22;;;3.91;100.00
71465;BME280;59274;49.874;9.154;2023-12-22T04:16:20;98984.22;;;3.99;100.00
71465;BME280;59274;49.874;9.154;2023-12-22T04:18:45;98969.34;;;4.05;100.00
71465;BME280;59274;49.874;9.154;2023-12-22T04:21:11;98992.13;;;4.11;100.00
71465;BME280;59274;49.874;9.154;2023-12-22T04:23:36;98976.72;;;4.08;100.00
71465;BME280;59274;49.874;9.154;2023-12-22T04:26:01;98961.28;;;4.05;100.00
71465;BME280;59274;49.874;9.154;2023-12-22T04:28:27;98958.63;;;4.05;100.00
71465;BME280;59274;49.874;9.154;2023-12-22T04:30:53;98948.28;;;4.07;100.00
71465;BME280;59274;49.874;9.154;2023-12-22T04:33:18;98953.34;;;4.12;100.00
71465;BME280;59274;49.874;9.154;2023-12-22T04:35:43;98959.47;;;4.09;100.00
71465;BME280;59274;49.874;9.154;2023-12-22T04:38:09;98957.56;;;4.10;100.00
71465;BME280;59274;49.874;9.154;2023-12-22T04:40:34;98960.00;;;4.18;100.00
71465;BME280;59274;49.874;9.154;2023-12-22T04:43:00;98950.97;;;4.33;100.00
71465;BME280;59274;49.874;9.154;2023-12-22T04:45:26;98960.09;;;4.52;100.00
71465;BME280;59274;49.874;9.154;2023-12-22T04:47:51;98965.66;;;4.66;100.00
71465;BME280;59274;49.874;9.154;2023-12-22T04:50:17;98967.16;;;4.63;100.00
71465;BME280;59274;49.874;9.154;2023-12-22T04:52:42;98964.56;;;4.70;100.00
71465;BME280;59274;49.874;9.154;2023-12-22T04:55:08;98963.06;;;4.73;100.00
71465;BME280;59274;49.874;9.154;2023-12-22T04:57:33;98957.72;;;4.77;100.00
71465;BME280;59274;49.874;9.154;2023-12-22T04:59:58;98949.75;;;4.84;100.00
71465;BME280;59274;49.874;9.154;2023-12-22T05:02:24;98951.66;;;4.83;100.00
71465;BME280;59274;49.874;9.154;2023-12-22T05:04:50;98960.16;;;4.85;100.00
71465;BME280;59274;49.874;9.154;2023-12-22T05:07:15;98960.22;;;4.89;100.00
71465;BME280;59274;49.874;9.154;2023-12-22T05:09:44;98951.38;;;4.88;100.00
71465;BME280;59274;49.874;9.154;2023-12-22T05:12:09;98954.91;;;4.96;100.00
71465;BME280;59274;49.874;9.154;2023-12-22T05:14:35;98985.56;;;4.88;100.00
71465;BME280;59274;49.874;9.154;2023-12-22T05:17:00;98976.81;;;4.98;100.00
71465;BME280;59274;49.874;9.154;2023-12-22T05:19:26;98989.59;;;5.04;100.00
71465;BME280;59274;49.874;9.154;2023-12-22T05:21:52;98978.09;;;5.07;100.00
71465;BME280;59274;49.874;9.154;2023-12-22T05:24:21;98989.66;;;5.08;100.00
71465;BME280;59274;49.874;9.154;2023-12-22T05:26:46;99001.19;;;5.08;100.00
71465;BME280;59274;49.874;9.154;2023-12-22T05:29:12;99000.00;;;5.06;100.00
71465;BME280;59274;49.874;9.154;2023-12-22T05:31:38;98996.44;;;4.98;100.00
71465;BME280;59274;49.874;9.154;2023-12-22T05:34:04;99005.97;;;4.92;100.00
71465;BME280;59274;49.874;9.154;2023-12-22T05:36:29;99027.56;;;4.96;100.00
71465;BME280;59274;49.874;9.154;2023-12-22T05:38:54;99024.91;;;4.99;100.00
71465;BME280;59274;49.874;9.154;2023-12-22T05:41:20;99021.03;;;4.97;100.00
71465;BME280;59274;49.874;9.154;2023-12-22T05:43:48;99021.41;;;4.95;100.00
71465;BME280;59274;49.874;9.154;2023-12-22T05:46:14;99020.56;;;4.91;100.00
71465;BME280;59274;49.874;9.154;2023-12-22T05:48:39;99028.53;;;4.84;100.00
71465;BME280;59274;49.874;9.154;2023-12-22T05:51:04;99018.50;;;4.81;100.00
71465;BME280;59274;49.874;9.154;2023-12-22T05:53:33;99007.69;;;4.78;100.00
71465;BME280;59274;49.874;9.154;2023-12-22T05:55:58;99014.97;;;4.77;100.00
71465;BME280;59274;49.874;9.154;2023-12-22T05:58:24;99008.16;;;4.83;100.00
71465;BME280;59274;49.874;9.154;2023-12-22T06:00:49;99008.53;;;4.82;100.00
71465;BME280;59274;49.874;9.154;2023-12-22T06:03:14;99003.88;;;4.79;100.00
71465;BME280;59274;49.874;9.154;2023-12-22T06:05:40;99008.88;;;4.80;100.00
71465;BME280;59274;49.874;9.154;2023-12-22T06:08:05;99001.69;;;4.88;100.00
71465;BME280;59274;49.874;9.154;2023-12-22T06:10:31;99026.25;;;4.86;100.00
71465;BME280;59274;49.874;9.154;2023-12-22T06:12:56;99037.34;;;4.81;100.00
71465;BME280;59274;49.874;9.154;2023-12-22T06:15:23;99044.97;;;4.79;100.00
71465;BME280;59274;49.874;9.154;2023-12-22T06:17:48;99026.94;;;4.80;100.00
71465;BME280;59274;49.874;9.154;2023-12-22T06:20:14;99017.72;;;4.81;100.00
71465;BME280;59274;49.874;9.154;2023-12-22T06:22:39;99025.16;;;4.91;100.00
71465;BME280;59274;49.874;9.154;2023-12-22T06:25:05;99013.78;;;5.01;100.00
71465;BME280;59274;49.874;9.154;2023-12-22T06:27:33;99028.81;;;5.05;100.00
71465;BME280;59274;49.874;9.154;2023-12-22T06:29:59;99033.47;;;5.08;100.00
71465;BME280;59274;49.874;9.154;2023-12-22T06:32:24;99034.53;;;5.00;100.00
71465;BME280;59274;49.874;9.154;2023-12-22T06:34:49;99026.59;;;5.11;100.00
71465;BME280;59274;49.874;9.154;2023-12-22T06:37:15;99032.72;;;5.11;100.00
71465;BME280;59274;49.874;9.154;2023-12-22T06:39:40;99029.75;;;5.17;100.00
71465;BME280;59274;49.874;9.154;2023-12-22T06:42:06;99028.63;;;5.21;100.00
71465;BME280;59274;49.874;9.154;2023-12-22T06:44:36;99036.25;;;5.16;100.00
71465;BME280;59274;49.874;9.154;2023-12-22T06:47:02;99032.72;;;5.11;100.00
71465;BME280;59274;49.874;9.154;2023-12-22T06:49:27;99043.63;;;5.19;100.00
71465;BME280;59274;49.874;9.154;2023-12-22T06:51:53;99047.16;;;5.26;100.00
71465;BME280;59274;49.874;9.154;2023-12-22T06:54:18;99043.38;;;5.31;100.00
71465;BME280;59274;49.874;9.154;2023-12-22T06:56:44;99025.06;;;5.43;100.00
71465;BME280;59274;49.874;9.154;2023-12-22T06:59:10;99042.03;;;5.47;100.00
71465;BME280;59274;49.874;9.154;2023-12-22T07:01:37;99045.56;;;5.55;100.00
71465;BME280;59274;49.874;9.154;2023-12-22T07:04:03;99054.91;;;5.65;100.00
71465;BME280;59274;49.874;9.154;2023-12-22T07:06:30;99076.75;;;5.56;100.00
71465;BME280;59274;49.874;9.154;2023-12-22T07:11:37;99051.38;;;5.57;100.00
71465;BME280;59274;49.874;9.154;2023-12-22T07:14:03;99057.13;;;5.56;100.00
71465;BME280;59274;49.874;9.154;2023-12-22T07:16:28;99077.53;;;5.57;100.00
71465;BME280;59274;49.874;9.154;2023-12-22T07:18:53;99055.97;;;5.57;100.00
71465;BME280;59274;49.874;9.154;2023-12-22T07:21:19;99061.88;;;5.66;100.00
71465;BME280;59274;49.874;9.154;2023-12-22T07:23:44;99077.66;;;5.67;100.00
71465;BME280;59274;49.874;9.154;2023-12-22T07:26:10;99077.97;;;5.62;100.00
71465;BME280;59274;49.874;9.154;2023-12-22T07:28:36;99076.03;;;5.59;100.00
71465;BME280;59274;49.874;9.154;2023-12-22T07:31:01;99088.81;;;5.69;100.00
71465;BME280;59274;49.874;9.154;2023-12-22T07:33:26;99111.53;;;5.68;100.00
71465;BME280;59274;49.874;9.154;2023-12-22T07:35:52;99105.84;;;5.77;100.00
71465;BME280;59274;49.874;9.154;2023-12-22T07:38:17;99110.44;;;5.73;100.00
71465;BME280;59274;49.874;9.154;2023-12-22T07:40:42;99117.44;;;5.81;100.00
71465;BME280;59274;49.874;9.154;2023-12-22T07:43:08;99117.94;;;5.90;100.00
71465;BME280;59274;49.874;9.154;2023-12-22T07:45:34;99110.69;;;5.94;100.00
71465;BME280;59274;49.874;9.154;2023-12-22T07:47:59;99120.66;;;5.90;100.00
71465;BME280;59274;49.874;9.154;2023-12-22T07:50:25;99123.38;;;5.94;100.00
71465;BME280;59274;49.874;9.154;2023-12-22T07:52:50;99130.00;;;6.00;100.00
71465;BME280;59274;49.874;9.154;2023-12-22T07:55:16;99120.88;;;6.11;100.00
71465;BME280;59274;49.874;9.154;2023-12-22T07:57:41;99116.75;;;6.21;100.00
71465;BME280;59274;49.874;9.154;2023-12-22T08:00:07;99118.78;;;6.31;100.00
71465;BME280;59274;49.874;9.154;2023-12-22T08:02:34;99105.31;;;6.35;100.00
71465;BME280;59274;49.874;9.154;2023-12-22T08:05:00;99112.63;;;6.34;100.00
71465;BME280;59274;49.874;9.154;2023-12-22T08:07:25;99124.25;;;6.38;100.00
71465;BME280;59274;49.874;9.154;2023-12-22T08:09:51;99115.75;;;6.40;100.00
71465;BME280;59274;49.874;9.154;2023-12-22T08:12:16;99120.84;;;6.48;100.00
71465;BME280;59274;49.874;9.154;2023-12-22T08:14:41;99142.13;;;6.57;100.00
71465;BME280;59274;49.874;9.154;2023-12-22T08:17:07;99144.03;;;6.56;100.00
71465;BME280;59274;49.874;9.154;2023-12-22T08:19:32;99159.81;;;6.54;100.00
71465;BME280;59274;49.874;9.154;2023-12-22T08:21:58;99147.47;;;6.50;100.00
71465;BME280;59274;49.874;9.154;2023-12-22T08:24:24;99128.22;;;6.51;100.00
71465;BME280;59274;49.874;9.154;2023-12-22T08:26:50;99146.66;;;6.46;100.00
71465;BME280;59274;49.874;9.154;2023-12-22T08:29:15;99142.03;;;6.46;100.00
71465;BME280;59274;49.874;9.154;2023-12-22T08:31:41;99155.97;;;6.52;100.00
71465;BME280;59274;49.874;9.154;2023-12-22T08:34:07;99143.69;;;6.58;100.00
71465;BME280;59274;49.874;9.154;2023-12-22T08:36:32;99127.91;;;6.60;100.00
71465;BME280;59274;49.874;9.154;2023-12-22T08:38:58;99117.91;;;6.64;100.00
71465;BME280;59274;49.874;9.154;2023-12-22T08:41:24;99124.50;;;6.66;100.00
71465;BME280;59274;49.874;9.154;2023-12-22T08:43:49;99134.88;;;6.64;100.00
71465;BME280;59274;49.874;9.154;2023-12-22T08:46:15;99123.41;;;6.75;100.00
71465;BME280;59274;49.874;9.154;2023-12-22T08:48:40;99137.28;;;6.77;100.00
71465;BME280;59274;49.874;9.154;2023-12-22T08:51:06;99138.53;;;6.86;100.00
71465;BME280;59274;49.874;9.154;2023-12-22T08:53:33;99148.16;;;6.87;100.00
71465;BME280;59274;49.874;9.154;2023-12-22T08:56:02;99152.44;;;6.92;100.00
71465;BME280;59274;49.874;9.154;2023-12-22T08:58:28;99182.16;;;6.95;100.00
71465;BME280;59274;49.874;9.154;2023-12-22T09:00:54;99176.38;;;6.93;100.00
71465;BME280;59274;49.874;9.154;2023-12-22T09:03:19;99184.03;;;6.88;100.00
71465;BME280;59274;49.874;9.154;2023-12-22T09:05:44;99219.41;;;6.79;100.00
71465;BME280;59274;49.874;9.154;2023-12-22T09:08:10;99193.94;;;6.73;100.00
71465;BME280;59274;49.874;9.154;2023-12-22T09:10:35;99223.47;;;6.59;100.00
71465;BME280;59274;49.874;9.154;2023-12-22T09:13:01;99207.53;;;6.47;100.00
71465;BME280;59274;49.874;9.154;2023-12-22T09:15:27;99202.75;;;6.33;100.00
71465;BME280;59274;49.874;9.154;2023-12-22T09:17:52;99188.75;;;6.20;100.00
71465;BME280;59274;49.874;9.154;2023-12-22T09:20:19;99213.34;;;6.15;100.00
71465;BME280;59274;49.874;9.154;2023-12-22T09:22:45;99188.19;;;6.04;100.00
71465;BME280;59274;49.874;9.154;2023-12-22T09:25:10;99166.94;;;5.96;100.00
71465;BME280;59274;49.874;9.154;2023-12-22T09:27:36;99196.88;;;5.90;100.00
71465;BME280;59274;49.874;9.154;2023-12-22T09:30:01;99191.00;;;5.85;100.00
71465;BME280;59274;49.874;9.154;2023-12-22T09:32:27;99183.66;;;5.82;100.00
71465;BME280;59274;49.874;9.154;2023-12-22T09:34:53;99163.97;;;5.78;100.00
71465;BME280;59274;49.874;9.154;2023-12-22T09:37:20;99167.41;;;5.75;100.00
71465;BME280;59274;49.874;9.154;2023-12-22T09:39:45;99167.78;;;5.73;100.00
71465;BME280;59274;49.874;9.154;2023-12-22T09:42:11;99185.00;;;5.69;100.00
71465;BME280;59274;49.874;9.154;2023-12-22T09:44:38;99175.78;;;5.70;100.00
71465;BME280;59274;49.874;9.154;2023-12-22T09:47:04;99178.13;;;5.71;100.00
71465;BME280;59274;49.874;9.154;2023-12-22T09:49:32;99188.13;;;5.71;100.00
71465;BME280;59274;49.874;9.154;2023-12-22T09:51:59;99174.22;;;5.69;100.00
71465;BME280;59274;49.874;9.154;2023-12-22T09:54:25;99187.69;;;5.69;100.00
71465;BME280;59274;49.874;9.154;2023-12-22T09:56:52;99175.09;;;5.76;100.00
71465;BME280;59274;49.874;9.154;2023-12-22T09:59:17;99172.84;;;5.78;100.00
71465;BME280;59274;49.874;9.154;2023-12-22T10:01:44;99171.69;;;5.79;100.00
71465;BME280;59274;49.874;9.154;2023-12-22T10:04:15;99155.28;;;5.88;100.00
71465;BME280;59274;49.874;9.154;2023-12-22T10:06:41;99157.22;;;5.91;100.00
71465;BME280;59274;49.874;9.154;2023-12-22T10:09:08;99163.84;;;5.97;100.00
71465;BME280;59274;49.874;9.154;2023-12-22T10:11:35;99167.38;;;6.05;100.00
71465;BME280;59274;49.874;9.154;2023-12-22T10:14:02;99162.84;;;6.09;100.00
71465;BME280;59274;49.874;9.154;2023-12-22T10:16:28;99140.53;;;6.12;100.00
71465;BME280;59274;49.874;9.154;2023-12-22T10:18:54;99139.88;;;6.22;100.00
71465;BME280;59274;49.874;9.154;2023-12-22T10:21:20;99141.84;;;6.25;100.00
71465;BME280;59274;49.874;9.154;2023-12-22T10:23:46;99141.16;;;6.35;100.00
71465;BME280;59274;49.874;9.154;2023-12-22T10:26:12;99130.03;;;6.40;100.00
71465;BME280;59274;49.874;9.154;2023-12-22T10:28:38;99120.50;;;6.50;100.00
71465;BME280;59274;49.874;9.154;2023-12-22T10:31:03;99114.78;;;6.58;100.00
71465;BME280;59274;49.874;9.154;2023-12-22T10:33:33;99109.44;;;6.65;100.00
71465;BME280;59274;49.874;9.154;2023-12-22T10:35:59;99126.03;;;6.67;100.00
71465;BME280;59274;49.874;9.154;2023-12-22T10:38:43;99107.94;;;6.72;100.00
71465;BME280;59274;49.874;9.154;2023-12-22T10:41:10;99107.97;;;6.75;100.00
71465;BME280;59274;49.874;9.154;2023-12-22T10:43:39;99104.53;;;6.78;100.00
71465;BME280;59274;49.874;9.154;2023-12-22T10:46:06;99096.84;;;6.84;100.00
71465;BME280;59274;49.874;9.154;2023-12-22T10:48:31;99079.16;;;6.90;100.00
71465;BME280;59274;49.874;9.154;2023-12-22T10:50:56;99079.19;;;6.93;100.00
71465;BME280;59274;49.874;9.154;2023-12-22T10:53:22;99083.47;;;6.98;100.00
71465;BME280;59274;49.874;9.154;2023-12-22T10:55:49;99080.38;;;6.99;100.00
71465;BME280;59274;49.874;9.154;2023-12-22T10:58:18;99073.44;;;6.95;100.00
71465;BME280;59274;49.874;9.154;2023-12-22T11:00:47;99066.50;;;6.97;100.00
71465;BME280;59274;49.874;9.154;2023-12-22T11:03:17;99068.09;;;7.05;100.00
71465;BME280;59274;49.874;9.154;2023-12-22T11:05:46;99065.03;;;7.11;100.00
71465;BME280;59274;49.874;9.154;2023-12-22T11:08:14;99063.88;;;7.08;100.00
71465;BME280;59274;49.874;9.154;2023-12-22T11:10:42;99063.50;;;7.13;100.00
71465;BME280;59274;49.874;9.154;2023-12-22T11:13:12;99059.28;;;7.19;100.00
71465;BME280;59274;49.874;9.154;2023-12-22T11:15:37;99045.44;;;7.24;100.00
71465;BME280;59274;49.874;9.154;2023-12-22T11:18:05;99035.41;;;7.32;100.00
71465;BME280;59274;49.874;9.154;2023-12-22T11:20:32;99047.44;;;7.41;100.00
71465;BME280;59274;49.874;9.154;2023-12-22T11:23:02;99040.50;;;7.47;100.00
71465;BME280;59274;49.874;9.154;2023-12-22T11:25:28;99028.19;;;7.54;100.00
71465;BME280;59274;49.874;9.154;2023-12-22T11:27:55;99022.03;;;7.57;100.00
71465;BME280;59274;49.874;9.154;2023-12-22T11:30:22;99018.94;;;7.62;100.00
71465;BME280;59274;49.874;9.154;2023-12-22T11:32:49;99010.84;;;7.69;100.00
71465;BME280;59274;49.874;9.154;2023-12-22T11:35:15;99006.63;;;7.71;100.00
71465;BME280;59274;49.874;9.154;2023-12-22T11:37:42;99018.22;;;7.72;100.00
71465;BME280;59274;49.874;9.154;2023-12-22T11:40:08;99005.47;;;7.76;100.00
71465;BME280;59274;49.874;9.154;2023-12-22T11:42:37;99002.75;;;7.76;100.00
71465;BME280;59274;49.874;9.154;2023-12-22T11:45:09;98988.50;;;7.79;100.00
71465;BME280;59274;49.874;9.154;2023-12-22T11:47:36;98993.50;;;7.77;100.00
71465;BME280;59274;49.874;9.154;2023-12-22T11:50:02;98998.53;;;7.78;100.00
71465;BME280;59274;49.874;9.154;2023-12-22T11:52:28;98989.66;;;7.81;100.00
71465;BME280;59274;49.874;9.154;2023-12-22T11:54:55;98987.34;;;7.80;100.00
71465;BME280;59274;49.874;9.154;2023-12-22T11:59:57;98982.31;;;7.89;100.00
71465;BME280;59274;49.874;9.154;2023-12-22T12:02:23;98963.03;;;7.87;100.00
71465;BME280;59274;49.874;9.154;2023-12-22T12:04:50;98967.66;;;7.86;100.00
71465;BME280;59274;49.874;9.154;2023-12-22T12:10:09;98960.31;;;7.83;100.00
71465;BME280;59274;49.874;9.154;2023-12-22T12:12:35;98945.25;;;7.79;100.00
71465;BME280;59274;49.874;9.154;2023-12-22T12:15:10;98940.63;;;7.72;100.00
71465;BME280;59274;49.874;9.154;2023-12-22T12:17:40;98927.47;;;7.71;100.00
71465;BME280;59274;49.874;9.154;2023-12-22T12:20:07;98920.53;;;7.63;100.00
71465;BME280;59274;49.874;9.154;2023-12-22T12:22:33;98923.59;;;7.61;100.00
71465;BME280;59274;49.874;9.154;2023-12-22T12:24:59;98941.72;;;7.54;100.00
71465;BME280;59274;49.874;9.154;2023-12-22T12:27:26;98933.63;;;7.46;100.00
71465;BME280;59274;49.874;9.154;2023-12-22T12:29:52;98929.38;;;7.45;100.00
71465;BME280;59274;49.874;9.154;2023-12-22T12:32:18;98931.28;;;7.41;100.00
71465;BME280;59274;49.874;9.154;2023-12-22T12:34:49;98929.00;;;7.43;100.00
71465;BME280;59274;49.874;9.154;2023-12-22T12:37:16;98918.97;;;7.44;100.00
71465;BME280;59274;49.874;9.154;2023-12-22T12:39:42;98931.31;;;7.48;100.00
71465;BME280;59274;49.874;9.154;2023-12-22T12:42:11;98926.31;;;7.51;100.00
71465;BME280;59274;49.874;9.154;2023-12-22T12:44:39;98920.13;;;7.50;100.00
71465;BME280;59274;49.874;9.154;2023-12-22T12:47:13;98919.75;;;7.52;100.00
71465;BME280;59274;49.874;9.154;2023-12-22T12:49:39;98921.69;;;7.51;100.00
71465;BME280;59274;49.874;9.154;2023-12-22T12:52:05;98916.28;;;7.51;100.00
71465;BME280;59274;49.874;9.154;2023-12-22T12:54:31;98903.53;;;7.52;100.00
71465;BME280;59274;49.874;9.154;2023-12-22T12:56:57;98908.94;;;7.55;100.00
71465;BME280;59274;49.874;9.154;2023-12-22T12:59:23;98896.59;;;7.65;100.00
71465;BME280;59274;49.874;9.154;2023-12-22T13:01:49;98895.06;;;7.71;100.00
71465;BME280;59274;49.874;9.154;2023-12-22T13:04:15;98889.66;;;7.78;100.00